Time;durP1;ratioP1;P1;durP2;ratioP2;P2;SDS_P1;SDS_P2;PMS_P1;PMS_P2;Temp;Humidity;BMP_temperature;BMP_pressure;BME280_temperature;BME280_humidity;BME280_pressure;Samples;Min_cycle;Max_cycle;Signal;HPM_P1;HPM_P2
2023/11/14 00:02:16;;;;;;;15.63;3.53;;;11.70;99.90;;;;;;5071723;28;20166;-69
2023/11/14 00:04:41;;;;;;;10.97;3.17;;;11.70;99.90;;;;;;5071335;28;20193;-69
2023/11/14 00:07:07;;;;;;;7.37;2.30;;;11.70;99.90;;;;;;5071700;28;20537;-69
2023/11/14 00:09:33;;;;;;;12.63;2.60;;;11.70;99.90;;;;;;5071572;28;20302;-69
2023/11/14 00:11:59;;;;;;;10.83;1.60;;;11.70;99.90;;;;;;5071745;28;21093;-69
2023/11/14 00:14:24;;;;;;;16.37;3.50;;;11.70;99.90;;;;;;5071526;28;20256;-69
2023/11/14 00:16:50;;;;;;;15.50;2.80;;;11.60;99.90;;;;;;5071692;28;20189;-68
2023/11/14 00:19:16;;;;;;;34.83;3.63;;;11.70;99.90;;;;;;5053517;28;20206;-69
2023/11/14 00:21:41;;;;;;;18.53;2.97;;;11.70;99.90;;;;;;5071572;28;20174;-69
2023/11/14 00:24:09;;;;;;;10.23;2.63;;;11.70;99.90;;;;;;5071382;28;20198;-69
2023/11/14 00:26:34;;;;;;;20.33;3.50;;;11.80;99.90;;;;;;5051394;28;20167;-69
2023/11/14 00:29:00;;;;;;;21.87;2.97;;;11.70;99.90;;;;;;5058039;28;21005;-69
2023/11/14 00:31:26;;;;;;;20.17;3.47;;;11.70;99.90;;;;;;5071019;28;20511;-69
2023/11/14 00:33:51;;;;;;;7.53;2.80;;;11.70;99.90;;;;;;5072502;28;20401;-69
2023/11/14 00:36:17;;;;;;;8.80;2.80;;;11.70;99.90;;;;;;5075524;28;20166;-68
2023/11/14 00:38:43;;;;;;;11.77;3.13;;;11.70;99.90;;;;;;5057408;28;20182;-69
2023/11/14 00:41:09;;;;;;;5.97;2.50;;;11.80;99.90;;;;;;5075300;28;20170;-69
2023/11/14 00:43:35;;;;;;;24.27;3.57;;;11.80;99.90;;;;;;5074932;28;20504;-69
2023/11/14 00:46:00;;;;;;;4.43;1.53;;;11.80;99.90;;;;;;5075112;28;20487;-68
2023/11/14 00:48:26;;;;;;;13.70;3.07;;;11.80;99.90;;;;;;5075093;28;20227;-69
2023/11/14 00:50:51;;;;;;;9.67;2.23;;;11.80;99.90;;;;;;5074773;28;20213;-69
2023/11/14 00:53:17;;;;;;;12.67;2.50;;;11.90;99.90;;;;;;5057025;28;20193;-68
2023/11/14 00:55:42;;;;;;;13.47;3.03;;;11.90;99.90;;;;;;5074888;28;20283;-69
2023/11/14 00:58:08;;;;;;;15.27;2.60;;;11.80;99.90;;;;;;5074847;28;20204;-68
2023/11/14 01:00:33;;;;;;;10.83;3.20;;;11.80;99.90;;;;;;5074839;28;20669;-69
2023/11/14 01:03:00;;;;;;;15.30;3.10;;;11.80;99.90;;;;;;5074936;28;20585;-69
2023/11/14 01:05:26;;;;;;;10.10;3.03;;;11.80;99.90;;;;;;5074667;28;20730;-69
2023/11/14 01:07:53;;;;;;;15.20;3.93;;;11.80;99.90;;;;;;5074810;28;20397;-69
2023/11/14 01:10:19;;;;;;;11.73;3.00;;;11.80;99.90;;;;;;5074706;28;20967;-68
2023/11/14 01:12:45;;;;;;;21.87;4.63;;;11.90;99.90;;;;;;5074724;28;20527;-69
2023/11/14 01:15:12;;;;;;;14.07;2.83;;;11.90;99.90;;;;;;5074461;28;20413;-69
2023/11/14 01:17:37;;;;;;;9.30;3.53;;;11.90;99.90;;;;;;5074684;28;20404;-69
2023/11/14 01:20:03;;;;;;;10.93;3.00;;;11.90;99.90;;;;;;5074459;28;20431;-68
2023/11/14 01:22:29;;;;;;;11.00;3.33;;;11.90;99.90;;;;;;5074578;28;20177;-68
2023/11/14 01:24:54;;;;;;;7.10;2.50;;;11.90;99.90;;;;;;5074265;28;20456;-69
2023/11/14 01:27:20;;;;;;;11.37;3.50;;;12.00;99.90;;;;;;5074485;28;20241;-69
2023/11/14 01:29:46;;;;;;;10.90;2.67;;;12.00;99.90;;;;;;5074279;28;20221;-69
2023/11/14 01:32:12;;;;;;;17.80;3.07;;;11.90;99.90;;;;;;5074485;28;20166;-68
2023/11/14 01:34:37;;;;;;;11.30;2.97;;;11.90;99.90;;;;;;5056257;28;20415;-68
2023/11/14 01:37:03;;;;;;;11.93;2.90;;;11.90;99.90;;;;;;5074191;28;20182;-68
2023/11/14 01:39:29;;;;;;;19.00;4.03;;;11.90;99.90;;;;;;5074163;28;20194;-69
2023/11/14 01:41:55;;;;;;;11.07;2.27;;;11.90;99.90;;;;;;5074152;28;20473;-69
2023/11/14 01:44:21;;;;;;;17.73;3.53;;;11.80;99.90;;;;;;5073851;28;20194;-69
2023/11/14 01:46:47;;;;;;;19.83;3.17;;;11.80;99.90;;;;;;5073539;28;20175;-69
2023/11/14 01:49:13;;;;;;;15.97;2.90;;;11.80;99.90;;;;;;5073977;28;20186;-69
2023/11/14 01:51:39;;;;;;;12.20;3.90;;;11.80;99.90;;;;;;5074143;28;20413;-68
2023/11/14 01:54:06;;;;;;;13.17;3.10;;;11.80;99.90;;;;;;5073715;28;20436;-68
2023/11/14 01:56:32;;;;;;;17.53;3.17;;;11.80;99.90;;;;;;5073848;28;20498;-69
2023/11/14 01:58:58;;;;;;;18.50;4.70;;;11.70;99.90;;;;;;5073769;28;20467;-69
2023/11/14 02:01:25;;;;;;;11.67;2.93;;;11.80;99.90;;;;;;5073870;28;20170;-68
2023/11/14 02:03:51;;;;;;;11.57;2.80;;;11.80;99.90;;;;;;5073322;28;20177;-69
2023/11/14 02:06:17;;;;;;;12.00;3.20;;;11.80;99.90;;;;;;5073425;28;20424;-69
2023/11/14 02:08:43;;;;;;;10.37;3.40;;;11.80;99.90;;;;;;5073584;28;20360;-68
2023/11/14 02:11:09;;;;;;;7.33;2.30;;;11.80;99.90;;;;;;5073160;28;20188;-68
2023/11/14 02:13:34;;;;;;;14.00;3.10;;;11.80;99.90;;;;;;5073354;28;20409;-69
2023/11/14 02:16:00;;;;;;;15.40;2.97;;;11.80;99.90;;;;;;5073388;28;20169;-68
2023/11/14 02:18:26;;;;;;;12.67;3.37;;;11.80;99.90;;;;;;5073444;28;20189;-68
2023/11/14 02:20:51;;;;;;;15.93;3.03;;;11.80;99.90;;;;;;5073447;28;20716;-69
2023/11/14 02:23:18;;;;;;;11.57;3.57;;;11.80;99.90;;;;;;5073431;28;20645;-68
2023/11/14 02:25:44;;;;;;;7.00;2.73;;;11.80;99.90;;;;;;5072939;28;20193;-68
2023/11/14 02:28:10;;;;;;;11.27;3.57;;;11.80;99.90;;;;;;5073188;28;20412;-68
2023/11/14 02:30:37;;;;;;;16.33;3.43;;;11.80;99.90;;;;;;5072904;28;20392;-69
2023/11/14 02:33:06;;;;;;;13.83;2.73;;;11.80;99.90;;;;;;5073198;28;20165;-68
2023/11/14 02:35:32;;;;;;;22.53;3.47;;;11.80;99.90;;;;;;5054834;28;20420;-69
2023/11/14 02:37:57;;;;;;;10.73;2.77;;;11.90;99.90;;;;;;5073061;28;20465;-69
2023/11/14 02:40:24;;;;;;;13.23;3.50;;;11.90;99.90;;;;;;5073029;28;20174;-68
2023/11/14 02:42:50;;;;;;;10.23;3.10;;;11.90;99.90;;;;;;5072915;28;20166;-68
2023/11/14 02:45:16;;;;;;;4.90;2.37;;;11.90;99.90;;;;;;5072547;28;20822;-68
2023/11/14 02:47:42;;;;;;;7.10;2.00;;;11.90;99.90;;;;;;5072787;28;20396;-68
2023/11/14 02:50:49;;;;;;;8.60;2.70;;;11.90;99.90;;;;;;5072772;28;20186;-68
2023/11/14 02:53:14;;;;;;;12.47;3.33;;;11.80;99.90;;;;;;5052534;28;20197;-68
2023/11/14 02:55:43;;;;;;;9.60;2.77;;;11.80;99.90;;;;;;5072419;28;20400;-68
2023/11/14 02:58:12;;;;;;;9.60;2.80;;;11.90;99.90;;;;;;5071362;28;20162;-69
2023/11/14 03:00:41;;;;;;;12.50;3.40;;;11.80;99.90;;;;;;5092847;28;20400;-68
2023/11/14 03:03:07;;;;;;;10.00;3.70;;;11.90;99.90;;;;;;5092565;28;20407;-69
2023/11/14 03:05:33;;;;;;;11.77;3.30;;;11.90;99.90;;;;;;5092355;28;20845;-69
2023/11/14 03:07:58;;;;;;;14.67;3.10;;;11.80;99.90;;;;;;5092322;28;20408;-68
2023/11/14 03:10:24;;;;;;;14.40;3.40;;;11.80;99.90;;;;;;5092658;28;20169;-69
2023/11/14 03:12:50;;;;;;;11.47;2.83;;;11.80;99.90;;;;;;5092685;28;20160;-68
2023/11/14 03:15:16;;;;;;;12.70;2.97;;;11.80;99.90;;;;;;5092545;28;20929;-68
2023/11/14 03:17:41;;;;;;;9.07;3.40;;;11.80;99.90;;;;;;5092602;28;20165;-68
2023/11/14 03:20:07;;;;;;;12.13;2.43;;;11.90;99.90;;;;;;5092422;28;20442;-69
2023/11/14 03:22:33;;;;;;;19.63;3.70;;;11.90;99.90;;;;;;5092583;28;20181;-69
2023/11/14 03:24:58;;;;;;;7.50;3.43;;;11.80;99.90;;;;;;5092256;28;20482;-69
2023/11/14 03:27:24;;;;;;;15.43;3.87;;;11.80;99.90;;;;;;5092331;28;20173;-68
2023/11/14 03:29:50;;;;;;;14.03;3.47;;;11.80;99.90;;;;;;5092338;28;20268;-68
2023/11/14 03:32:16;;;;;;;16.37;2.70;;;11.80;99.90;;;;;;5092435;28;20170;-69
2023/11/14 03:34:41;;;;;;;15.93;3.37;;;11.70;99.90;;;;;;5092062;28;20732;-69
2023/11/14 03:37:07;;;;;;;13.00;3.27;;;11.80;99.90;;;;;;5092412;28;20178;-69
2023/11/14 03:39:33;;;;;;;15.00;3.40;;;11.80;99.90;;;;;;5074157;28;20193;-68
2023/11/14 03:41:58;;;;;;;13.80;3.03;;;11.80;99.90;;;;;;5092127;28;20169;-68
2023/11/14 03:44:24;;;;;;;16.77;3.53;;;11.80;99.90;;;;;;5092002;28;20447;-68
2023/11/14 03:46:50;;;;;;;10.80;3.20;;;11.80;99.90;;;;;;5092188;28;20539;-69
2023/11/14 03:49:15;;;;;;;20.40;4.43;;;11.80;99.90;;;;;;5092081;28;20205;-69
2023/11/14 03:51:40;;;;;;;11.47;2.53;;;11.80;99.90;;;;;;5092134;28;20165;-69
2023/11/14 03:54:06;;;;;;;19.43;3.07;;;11.80;99.90;;;;;;5091806;28;20189;-69
2023/11/14 03:56:32;;;;;;;10.47;2.90;;;11.80;99.90;;;;;;5092175;28;20196;-68
2023/11/14 03:58:57;;;;;;;10.47;2.77;;;11.80;99.90;;;;;;5085238;28;20711;-66
2023/11/14 04:01:23;;;;;;;6.90;3.10;;;11.90;99.90;;;;;;5072033;28;20223;-66
2023/11/14 04:03:49;;;;;;;13.37;2.67;;;11.90;99.90;;;;;;5071526;28;20174;-69
2023/11/14 04:06:14;;;;;;;14.80;2.57;;;11.90;99.90;;;;;;5071687;28;20181;-68
2023/11/14 04:08:40;;;;;;;11.53;3.10;;;12.00;99.90;;;;;;5074236;28;20420;-69
2023/11/14 04:11:06;;;;;;;7.20;2.50;;;12.00;99.90;;;;;;5078343;28;20255;-69
2023/11/14 04:13:33;;;;;;;18.27;3.13;;;12.00;99.90;;;;;;5078221;28;20166;-69
2023/11/14 04:15:58;;;;;;;14.03;3.13;;;12.10;99.90;;;;;;5078274;28;20416;-69
2023/11/14 04:18:24;;;;;;;6.20;2.73;;;12.10;99.90;;;;;;5078240;28;20957;-68
2023/11/14 04:20:49;;;;;;;8.87;3.10;;;12.20;99.90;;;;;;5078241;28;20173;-69
2023/11/14 04:23:15;;;;;;;7.37;2.20;;;12.30;99.90;;;;;;5078252;28;20173;-69
2023/11/14 04:25:40;;;;;;;5.63;2.60;;;12.40;99.90;;;;;;5077794;28;20201;-69
2023/11/14 04:28:06;;;;;;;19.73;4.97;;;12.30;99.90;;;;;;5078168;28;20207;-69
2023/11/14 04:30:31;;;;;;;8.30;3.50;;;12.40;99.90;;;;;;5078039;28;20207;-69
2023/11/14 04:32:57;;;;;;;9.20;2.50;;;12.40;99.90;;;;;;5078061;28;20162;-69
2023/11/14 04:35:22;;;;;;;9.20;2.20;;;12.50;99.90;;;;;;5077974;28;20250;-69
2023/11/14 04:37:49;;;;;;;14.37;2.80;;;12.40;99.90;;;;;;5077787;28;20174;-68
2023/11/14 04:40:14;;;;;;;11.03;3.33;;;12.40;99.90;;;;;;5077876;28;20200;-69
2023/11/14 04:42:40;;;;;;;7.83;2.90;;;12.40;99.90;;;;;;5077986;28;20412;-69
2023/11/14 04:45:07;;;;;;;16.17;3.70;;;12.50;99.90;;;;;;5077759;28;20243;-69
2023/11/14 04:47:32;;;;;;;14.63;3.30;;;12.40;99.90;;;;;;5078065;28;20727;-68
2023/11/14 04:49:58;;;;;;;6.97;2.47;;;12.50;99.90;;;;;;5077962;28;20428;-69
2023/11/14 04:52:24;;;;;;;10.70;2.60;;;12.60;99.90;;;;;;5077902;28;20235;-69
2023/11/14 04:54:49;;;;;;;13.30;2.67;;;12.60;99.90;;;;;;5077865;28;20198;-69
2023/11/14 04:57:15;;;;;;;20.30;2.97;;;12.60;99.90;;;;;;5078014;28;20983;-68
2023/11/14 04:59:41;;;;;;;15.20;3.63;;;12.50;99.90;;;;;;5077800;28;20206;-69
2023/11/14 05:02:06;;;;;;;9.53;2.63;;;12.50;99.90;;;;;;5077813;28;20166;-69
2023/11/14 05:04:33;;;;;;;19.80;3.17;;;12.60;99.90;;;;;;5077721;28;20201;-69
2023/11/14 05:06:58;;;;;;;13.07;2.00;;;12.60;99.90;;;;;;5077885;28;20227;-69
2023/11/14 05:09:24;;;;;;;10.50;3.07;;;12.60;99.90;;;;;;5077770;28;20420;-69
2023/11/14 05:11:49;;;;;;;13.60;3.93;;;12.60;99.90;;;;;;5077774;28;20541;-69
2023/11/14 05:14:15;;;;;;;12.70;3.20;;;12.60;99.90;;;;;;5077695;28;20178;-69
2023/11/14 05:16:42;;;;;;;9.50;2.93;;;12.70;99.90;;;;;;5077573;28;20178;-69
2023/11/14 05:19:08;;;;;;;16.87;3.17;;;12.70;99.90;;;;;;5077720;28;20427;-69
2023/11/14 05:21:34;;;;;;;8.80;4.20;;;12.70;99.90;;;;;;5073702;28;20779;-69
2023/11/14 05:24:00;;;;;;;12.80;3.20;;;12.70;99.90;;;;;;5074293;28;20404;-69
2023/11/14 05:26:25;;;;;;;10.73;2.83;;;12.60;99.90;;;;;;5074589;28;20403;-69
2023/11/14 05:28:51;;;;;;;12.73;2.50;;;12.70;99.90;;;;;;5074296;28;20193;-69
2023/11/14 05:31:16;;;;;;;10.50;3.23;;;12.60;99.90;;;;;;5074435;28;20241;-69
2023/11/14 05:33:42;;;;;;;9.13;3.23;;;12.60;99.90;;;;;;5074361;28;20178;-69
2023/11/14 05:36:08;;;;;;;11.33;3.20;;;12.60;99.90;;;;;;5074488;28;20189;-68
2023/11/14 05:38:33;;;;;;;15.07;2.50;;;12.50;99.90;;;;;;5074182;28;20221;-69
2023/11/14 05:40:59;;;;;;;12.37;2.70;;;12.40;99.90;;;;;;5074243;28;20158;-69
2023/11/14 05:43:24;;;;;;;14.83;3.70;;;12.50;99.90;;;;;;5074254;28;20273;-69
2023/11/14 05:45:53;;;;;;;18.40;3.27;;;12.40;99.90;;;;;;5073855;28;20198;-69
2023/11/14 05:48:19;;;;;;;15.40;3.60;;;12.40;99.90;;;;;;5074188;28;20552;-69
2023/11/14 05:50:46;;;;;;;9.50;2.90;;;12.30;99.90;;;;;;5074041;28;20901;-68
2023/11/14 05:53:12;;;;;;;9.53;2.80;;;12.40;99.90;;;;;;5073889;28;20417;-69
2023/11/14 05:55:37;;;;;;;18.77;3.00;;;12.30;99.90;;;;;;5073610;28;20458;-68
2023/11/14 05:58:03;;;;;;;19.40;3.43;;;12.20;99.90;;;;;;5073873;28;20231;-69
2023/11/14 06:00:28;;;;;;;7.43;3.13;;;12.20;99.90;;;;;;5073856;28;20169;-69
2023/11/14 06:02:54;;;;;;;10.13;2.60;;;12.10;99.90;;;;;;5073855;28;20177;-69
2023/11/14 06:05:20;;;;;;;8.90;2.90;;;12.10;99.90;;;;;;5055675;28;20311;-68
2023/11/14 06:07:45;;;;;;;12.27;2.47;;;12.00;99.90;;;;;;5073776;28;20158;-69
2023/11/14 06:10:11;;;;;;;16.90;3.47;;;12.10;99.90;;;;;;5073576;28;20633;-69
2023/11/14 06:12:39;;;;;;;8.00;2.77;;;12.00;99.90;;;;;;5073724;28;20189;-69
2023/11/14 06:15:07;;;;;;;7.83;2.93;;;12.00;99.90;;;;;;5073431;28;20166;-69
2023/11/14 06:17:33;;;;;;;16.27;4.07;;;12.00;99.90;;;;;;5073618;28;20414;-69
2023/11/14 06:19:58;;;;;;;15.87;3.43;;;12.00;99.90;;;;;;5073391;28;20428;-69
2023/11/14 06:22:24;;;;;;;23.80;4.80;;;12.00;99.90;;;;;;5073403;28;20171;-69
2023/11/14 06:24:49;;;;;;;13.10;3.90;;;12.00;99.90;;;;;;5072760;28;20672;-69
2023/11/14 06:27:15;;;;;;;12.47;4.27;;;12.00;99.90;;;;;;5073386;28;20175;-69
2023/11/14 06:29:42;;;;;;;16.37;3.33;;;12.00;99.90;;;;;;5073225;28;20182;-69
2023/11/14 06:32:07;;;;;;;12.00;3.47;;;12.00;99.90;;;;;;5073095;28;20190;-68
2023/11/14 06:34:33;;;;;;;8.63;2.97;;;12.00;99.90;;;;;;5073032;28;20956;-69
2023/11/14 06:36:58;;;;;;;6.23;2.67;;;12.00;99.90;;;;;;5073203;28;20197;-68
2023/11/14 06:39:24;;;;;;;19.13;2.90;;;12.10;99.90;;;;;;5072991;28;20661;-68
2023/11/14 06:41:50;;;;;;;18.20;3.20;;;12.10;99.90;;;;;;5073074;28;20167;-69
2023/11/14 06:44:18;;;;;;;13.50;3.20;;;12.10;99.90;;;;;;5072803;28;20190;-69
2023/11/14 06:46:45;;;;;;;7.60;2.50;;;12.10;99.90;;;;;;5073062;28;20435;-68
2023/11/14 06:49:11;;;;;;;19.00;4.70;;;12.10;99.90;;;;;;5072737;28;20954;-68
2023/11/14 06:51:36;;;;;;;12.93;2.67;;;12.10;99.90;;;;;;5072898;28;20392;-68
2023/11/14 06:54:02;;;;;;;14.93;3.30;;;12.10;99.90;;;;;;5072636;28;20231;-69
2023/11/14 06:56:27;;;;;;;14.97;4.90;;;12.10;99.90;;;;;;5072855;28;20881;-69
2023/11/14 06:58:53;;;;;;;13.43;3.57;;;12.20;99.90;;;;;;5054587;28;20563;-69
2023/11/14 07:01:18;;;;;;;11.63;4.07;;;12.20;99.90;;;;;;5072673;28;20162;-68
2023/11/14 07:03:44;;;;;;;9.23;2.70;;;12.20;99.90;;;;;;5054699;28;20225;-68
2023/11/14 07:06:10;;;;;;;10.93;2.70;;;12.20;99.90;;;;;;5072170;28;20284;-69
2023/11/14 07:08:35;;;;;;;9.20;2.50;;;12.30;99.90;;;;;;5054592;28;20186;-69
2023/11/14 07:11:01;;;;;;;10.80;2.70;;;12.20;99.90;;;;;;5072401;28;20212;-68
2023/11/14 07:13:27;;;;;;;8.80;2.00;;;12.30;99.90;;;;;;5072569;28;20158;-68
2023/11/14 07:15:53;;;;;;;10.13;3.20;;;12.30;99.90;;;;;;5072285;28;20555;-69
2023/11/14 07:18:19;;;;;;;14.07;4.40;;;12.30;99.90;;;;;;5072319;28;20470;-69
2023/11/14 07:20:47;;;;;;;12.77;2.77;;;12.40;99.90;;;;;;5072291;28;20207;-69
2023/11/14 07:23:12;;;;;;;15.97;2.67;;;12.40;99.90;;;;;;5054438;28;20436;-68
2023/11/14 07:25:43;;;;;;;10.30;3.30;;;12.50;99.90;;;;;;5072179;28;20865;-68
2023/11/14 07:28:09;;;;;;;12.73;2.43;;;12.60;99.90;;;;;;5072151;28;20241;-69
2023/11/14 07:30:35;;;;;;;12.93;3.73;;;12.60;99.90;;;;;;5071272;28;20401;-68
2023/11/14 07:33:01;;;;;;;18.57;3.97;;;12.60;99.90;;;;;;5071811;28;20412;-68
2023/11/14 07:35:27;;;;;;;19.93;3.80;;;12.60;99.90;;;;;;5071971;28;20162;-69
2023/11/14 07:37:52;;;;;;;10.60;4.03;;;12.60;99.90;;;;;;5070778;28;20419;-69
2023/11/14 07:40:19;;;;;;;14.40;3.40;;;12.60;99.90;;;;;;5071972;28;20174;-69
2023/11/14 07:42:45;;;;;;;12.40;3.43;;;12.50;99.90;;;;;;5071576;28;20198;-69
2023/11/14 07:45:11;;;;;;;11.07;2.50;;;12.60;99.90;;;;;;5071680;28;20549;-69
2023/11/14 07:47:37;;;;;;;11.93;2.50;;;12.60;99.90;;;;;;5072029;28;20571;-69
2023/11/14 07:50:04;;;;;;;6.43;2.80;;;12.60;99.90;;;;;;5071811;28;20423;-69
2023/11/14 07:52:30;;;;;;;8.90;2.60;;;12.60;99.90;;;;;;5071818;28;20171;-69
2023/11/14 07:54:57;;;;;;;8.37;3.30;;;12.60;99.90;;;;;;5071526;28;20408;-69
2023/11/14 07:57:24;;;;;;;10.37;3.40;;;12.70;99.90;;;;;;5071899;28;20408;-69
2023/11/14 07:59:49;;;;;;;6.83;2.90;;;12.80;99.90;;;;;;5071651;28;20430;-69
2023/11/14 08:02:15;;;;;;;6.10;2.60;;;12.90;99.90;;;;;;5071801;28;20899;-69
2023/11/14 08:04:40;;;;;;;12.90;2.60;;;13.00;99.90;;;;;;5071431;28;20190;-69
2023/11/14 08:07:07;;;;;;;6.93;2.20;;;13.00;99.90;;;;;;5071817;28;20241;-69
2023/11/14 08:09:33;;;;;;;5.00;2.03;;;13.20;99.90;;;;;;5071681;28;20239;-68
2023/11/14 08:11:58;;;;;;;8.30;2.57;;;13.40;99.90;;;;;;5071688;28;20396;-69
2023/11/14 08:14:24;;;;;;;6.57;2.20;;;14.10;99.90;;;;;;5071519;28;20170;-69
2023/11/14 08:16:49;;;;;;;9.50;3.10;;;14.60;99.90;;;;;;5053807;28;20174;-69
2023/11/14 08:19:15;;;;;;;5.80;2.20;;;14.80;99.90;;;;;;5071512;28;20186;-69
2023/11/14 08:21:40;;;;;;;12.43;2.90;;;15.00;99.90;;;;;;5071562;28;20162;-69
2023/11/14 08:24:06;;;;;;;16.77;3.67;;;15.30;99.90;;;;;;5070755;28;20170;-69
2023/11/14 08:26:32;;;;;;;13.40;2.50;;;15.80;99.90;;;;;;5071535;28;20169;-69
2023/11/14 08:28:58;;;;;;;11.07;2.87;;;16.30;99.90;;;;;;5071129;28;20424;-69
2023/11/14 08:31:23;;;;;;;7.63;3.60;;;16.10;99.90;;;;;;5071550;28;20171;-69
2023/11/14 08:33:49;;;;;;;18.93;3.00;;;15.80;99.90;;;;;;5071328;28;20664;-69
2023/11/14 08:36:14;;;;;;;17.67;3.27;;;15.30;99.90;;;;;;5071499;28;20166;-69
2023/11/14 08:38:41;;;;;;;7.80;2.17;;;14.80;99.90;;;;;;5071592;28;20653;-69
2023/11/14 08:41:06;;;;;;;7.20;4.13;;;14.50;99.90;;;;;;5071384;28;20169;-69
2023/11/14 08:43:34;;;;;;;5.67;2.30;;;14.30;99.90;;;;;;5071202;28;20412;-69
2023/11/14 08:46:00;;;;;;;12.83;2.80;;;14.30;99.90;;;;;;5071382;28;20722;-69
2023/11/14 08:48:26;;;;;;;8.47;2.37;;;14.30;99.90;;;;;;5071305;28;20416;-69
2023/11/14 08:50:51;;;;;;;9.70;4.30;;;14.30;99.90;;;;;;5071431;28;20393;-69
2023/11/14 08:53:17;;;;;;;5.63;2.20;;;14.20;99.90;;;;;;5071192;28;20178;-69
2023/11/14 08:55:42;;;;;;;8.30;2.50;;;14.10;99.90;;;;;;5072434;28;20178;-69
2023/11/14 08:58:08;;;;;;;15.50;3.07;;;14.10;99.90;;;;;;5075170;28;20163;-69
2023/11/14 09:00:35;;;;;;;12.10;2.77;;;14.00;99.90;;;;;;5057001;28;20181;-69
2023/11/14 09:03:01;;;;;;;8.00;2.80;;;13.80;99.90;;;;;;5074996;28;20158;-69
2023/11/14 09:05:27;;;;;;;10.23;2.57;;;13.90;99.90;;;;;;5074707;28;20444;-69
2023/11/14 09:07:53;;;;;;;10.57;3.40;;;14.00;99.90;;;;;;5074834;28;20163;-69
2023/11/14 09:10:19;;;;;;;10.63;2.93;;;14.20;99.90;;;;;;5074784;28;20478;-69
2023/11/14 09:12:45;;;;;;;6.77;2.83;;;14.30;99.90;;;;;;5074878;28;20633;-69
2023/11/14 09:15:13;;;;;;;14.93;2.33;;;14.20;99.90;;;;;;5074593;28;20452;-69
2023/11/14 09:17:39;;;;;;;7.87;4.23;;;14.30;99.90;;;;;;5074773;28;20777;-69
2023/11/14 09:20:05;;;;;;;15.87;2.77;;;14.20;99.90;;;;;;5074658;28;20424;-68
2023/11/14 09:22:31;;;;;;;6.83;3.20;;;14.20;99.90;;;;;;5074585;28;20495;-69
2023/11/14 09:24:56;;;;;;;9.90;2.90;;;14.20;99.90;;;;;;5073883;28;20546;-68
2023/11/14 09:27:25;;;;;;;12.43;2.13;;;14.30;99.90;;;;;;5074540;28;20172;-69
2023/11/14 09:29:51;;;;;;;11.20;3.63;;;14.40;99.90;;;;;;5074542;28;20186;-67
2023/11/14 09:32:19;;;;;;;6.57;1.77;;;14.60;99.90;;;;;;5074420;28;20904;-69
2023/11/14 09:34:47;;;;;;;8.23;2.37;;;14.70;99.90;;;;;;5074299;28;20928;-69
2023/11/14 09:37:13;;;;;;;5.97;1.80;;;14.80;99.90;;;;;;5074430;28;20401;-69
2023/11/14 09:39:38;;;;;;;11.10;3.10;;;14.70;99.90;;;;;;5074220;28;20428;-68
2023/11/14 09:42:04;;;;;;;8.40;2.73;;;14.80;99.90;;;;;;5074307;28;20775;-69
2023/11/14 09:44:30;;;;;;;5.47;1.60;;;14.80;99.90;;;;;;5073913;28;20209;-69
2023/11/14 09:46:58;;;;;;;12.00;2.20;;;14.60;99.90;;;;;;5074172;28;20404;-69
2023/11/14 09:49:24;;;;;;;9.97;2.30;;;14.70;99.90;;;;;;5074015;28;20511;-66
2023/11/14 09:51:50;;;;;;;7.13;2.27;;;14.90;99.90;;;;;;5074045;28;20492;-67
2023/11/14 09:54:17;;;;;;;10.43;2.17;;;15.00;99.90;;;;;;5073784;28;20186;-67
2023/11/14 09:56:47;;;;;;;5.70;3.10;;;15.00;99.90;;;;;;5074127;28;20424;-67
2023/11/14 09:59:13;;;;;;;8.33;2.03;;;14.80;99.90;;;;;;5073860;28;20428;-67
2023/11/14 10:01:40;;;;;;;12.70;2.43;;;14.80;99.90;;;;;;5073952;28;20782;-68
2023/11/14 10:04:06;;;;;;;5.13;1.93;;;14.70;99.90;;;;;;5073673;28;20462;-67
2023/11/14 10:06:34;;;;;;;12.67;4.00;;;14.60;99.90;;;;;;5073332;28;20606;-67
2023/11/14 10:09:01;;;;;;;3.80;2.23;;;14.60;99.90;;;;;;5055745;28;20436;-67
2023/11/14 10:11:45;;;;;;;10.03;3.00;;;14.40;99.90;;;;;;5073763;28;20961;-67
2023/11/14 10:14:11;;;;;;;6.20;2.40;;;14.40;99.90;;;;;;5073563;28;20412;-67
2023/11/14 10:16:36;;;;;;;9.70;2.43;;;14.20;99.90;;;;;;5073612;28;20451;-67
2023/11/14 10:19:11;;;;;;;8.30;2.20;;;14.30;99.90;;;;;;5073450;28;20271;-67
2023/11/14 10:21:36;;;;;;;6.53;1.70;;;14.20;99.90;;;;;;5073624;28;20566;-67
2023/11/14 10:24:14;;;;;;;6.20;2.00;;;14.30;99.90;;;;;;5072935;28;20542;-67
2023/11/14 10:26:52;;;;;;;5.13;1.27;;;14.30;99.90;;;;;;5073524;28;20167;-67
2023/11/14 10:29:19;;;;;;;5.30;1.90;;;14.30;99.90;;;;;;5073313;28;20424;-67
2023/11/14 10:31:45;;;;;;;10.67;2.97;;;14.40;99.90;;;;;;5073229;28;20404;-67
2023/11/14 10:34:30;;;;;;;5.90;2.30;;;14.40;99.90;;;;;;5073136;28;20420;-68
2023/11/14 10:36:57;;;;;;;7.00;2.17;;;14.40;99.90;;;;;;5073306;28;20393;-68
2023/11/14 10:39:24;;;;;;;10.70;2.17;;;14.30;99.90;;;;;;5055171;28;20978;-67
2023/11/14 10:41:52;;;;;;;6.27;2.23;;;14.30;99.90;;;;;;5073061;28;20835;-67
2023/11/14 10:44:18;;;;;;;8.47;2.40;;;14.30;99.90;;;;;;5072864;28;20444;-68
2023/11/14 10:46:48;;;;;;;9.10;3.00;;;14.30;99.90;;;;;;5073057;28;20392;-68
2023/11/14 10:49:14;;;;;;;6.00;2.37;;;14.20;99.90;;;;;;5072878;28;20985;-67
2023/11/14 10:51:41;;;;;;;15.13;2.30;;;14.10;99.90;;;;;;5072951;28;20425;-67
2023/11/14 10:54:07;;;;;;;8.83;2.40;;;13.90;99.90;;;;;;5072619;28;20174;-67
2023/11/14 10:56:36;;;;;;;9.47;2.30;;;13.70;99.90;;;;;;5072867;28;20428;-67
2023/11/14 10:59:15;;;;;;;6.10;2.13;;;13.60;99.90;;;;;;5072731;28;20431;-67
2023/11/14 11:01:45;;;;;;;3.57;2.00;;;13.50;99.90;;;;;;5072739;28;20401;-67
2023/11/14 11:04:13;;;;;;;6.43;1.83;;;13.40;99.90;;;;;;5054507;28;20408;-68
2023/11/14 11:06:39;;;;;;;7.83;2.63;;;13.50;99.90;;;;;;5072627;28;20427;-67
2023/11/14 11:09:05;;;;;;;5.10;1.93;;;13.50;99.90;;;;;;5072516;28;20420;-67
2023/11/14 11:11:39;;;;;;;3.83;1.47;;;13.60;99.90;;;;;;5072601;28;20411;-68
2023/11/14 11:14:08;;;;;;;10.97;2.83;;;13.60;99.90;;;;;;5072298;28;20428;-67
2023/11/14 11:16:43;;;;;;;9.60;2.57;;;13.70;99.90;;;;;;5072453;28;20403;-67
2023/11/14 11:19:28;;;;;;;4.67;2.50;;;13.90;99.90;;;;;;5071533;28;20424;-67
2023/11/14 11:22:10;;;;;;;5.93;1.87;;;14.10;99.90;;;;;;5072416;28;20404;-68
2023/11/14 11:24:37;;;;;;;4.93;2.67;;;14.10;99.90;;;;;;5065463;28;20464;-67
2023/11/14 11:27:09;;;;;;;3.20;1.60;;;14.10;99.90;;;;;;5059892;28;20428;-68
2023/11/14 11:29:45;;;;;;;10.90;2.73;;;14.00;99.90;;;;;;5059704;28;20447;-67
2023/11/14 11:32:32;;;;;;;8.13;2.57;;;13.90;99.90;;;;;;5071497;28;20725;-68
2023/11/14 11:35:16;;;;;;;10.33;2.27;;;13.80;99.90;;;;;;5071725;28;20403;-68
2023/11/14 11:38:09;;;;;;;6.30;1.87;;;13.70;99.90;;;;;;5072077;28;20408;-68
2023/11/14 11:40:37;;;;;;;6.83;1.67;;;13.60;99.90;;;;;;5059608;28;20416;-68
2023/11/14 11:43:09;;;;;;;6.10;2.20;;;13.50;99.90;;;;;;5072006;28;20606;-68
2023/11/14 11:45:49;;;;;;;2.97;1.23;;;13.60;99.90;;;;;;5053708;28;20470;-68
2023/11/14 11:48:23;;;;;;;5.13;1.53;;;13.40;99.90;;;;;;5071902;28;20424;-68
2023/11/14 11:50:51;;;;;;;12.27;2.00;;;13.40;99.90;;;;;;5071776;28;20400;-68
2023/11/14 11:53:42;;;;;;;5.17;2.10;;;13.20;99.90;;;;;;5071812;28;20420;-68
2023/11/14 11:56:12;;;;;;;5.07;2.13;;;13.20;99.90;;;;;;5072050;28;20462;-69
2023/11/14 11:58:46;;;;;;;7.77;1.60;;;13.00;99.90;;;;;;5071825;28;20424;-68
2023/11/14 12:01:12;;;;;;;6.07;1.53;;;13.20;99.90;;;;;;5071802;28;20463;-68
2023/11/14 12:03:37;;;;;;;6.03;1.63;;;13.60;99.90;;;;;;5053622;28;20448;-68
2023/11/14 12:06:09;;;;;;;8.00;2.20;;;13.90;99.90;;;;;;5071914;28;21015;-68
2023/11/14 12:08:38;;;;;;;5.17;1.80;;;14.00;99.90;;;;;;5071712;28;20269;-68
2023/11/14 12:11:04;;;;;;;9.73;2.40;;;14.00;99.90;;;;;;5071649;28;20432;-68
2023/11/14 12:13:30;;;;;;;6.37;2.00;;;13.90;99.90;;;;;;5071519;28;20446;-68
2023/11/14 12:15:57;;;;;;;5.33;1.70;;;13.90;99.90;;;;;;5071452;28;20408;-68
2023/11/14 12:18:22;;;;;;;7.07;2.70;;;14.00;99.90;;;;;;5071592;28;20190;-68
2023/11/14 12:20:49;;;;;;;4.50;1.60;;;13.90;99.90;;;;;;5071615;28;20415;-68
2023/11/14 12:23:15;;;;;;;5.77;2.27;;;13.80;99.90;;;;;;5069978;28;20185;-68
2023/11/14 12:25:41;;;;;;;10.20;2.07;;;13.70;99.90;;;;;;5066490;28;20874;-68
2023/11/14 12:28:06;;;;;;;6.07;1.90;;;13.70;99.90;;;;;;5070602;28;20511;-68
2023/11/14 12:30:34;;;;;;;2.63;1.90;;;13.50;99.90;;;;;;5074056;28;20240;-68
2023/11/14 12:33:05;;;;;;;13.40;1.97;;;13.40;99.90;;;;;;5065745;28;20180;-68
2023/11/14 12:35:47;;;;;;;9.70;1.67;;;13.30;99.90;;;;;;5070007;28;20452;-68
2023/11/14 12:38:13;;;;;;;12.33;2.47;;;13.30;99.90;;;;;;5068548;28;21009;-68
2023/11/14 12:40:38;;;;;;;4.20;2.47;;;13.30;99.90;;;;;;5067423;28;20409;-68